aviador You're here:

LQMO Decoded Metar

MOSTAR in BOSNIA-HERCEGOVINA
Report Time2017-08-18 04:30:00
UTC Time2017-08-18 04:57:16
Flight Rules vfr VFR
WindVRB at 02 kt
Visibility9999 m
Phenomena:N/A
Clouds:N/A
Expected CloudBase > 800 ft AGL from Temp-Dew spread
CeilingNone
Temp19°C (ISA +5)
Dew Point17°C (88% RH)
QNH1015 hPa
Density Alt1,096 ft
Elevation354 ft
Report Wrong Elevation
Raw Report
METAR LQMO 180430Z VRB02KT CAVOK 19/17 Q1015=

Extra information for LQMO:More info

Metar Taf Metar & Taf Last 4 Metars F.Rules Stats Wind Profile Meteogram Temp Stats Airport Information Weather charts Add Link Nearby VenuesMetar ALERT Operation Metar Decoded Social comments